Hawera, New Zealand
Current Conditions -  °F | °C
As of 12:30 AM on Saturday 25 Oct 2014 (Local Time) from NZWN Reporting Station
Scattered Clouds Scattered Clouds  
Wind Chill: 50°   Ceiling: Unl
Heat Index: 50°   Visibility: 6mi
Dew Point: 37°   Wind: 28mph
Humidity: 62%   Direction: 190°S
Pressure: 30.21"   Gusts: NA
Location:  39.59°S, 174.28°E
Report Text: NZWN 241230Z AUTO 19024KT 9999 SCT042/// 10/03 Q1023 NOSIG
Loading
Personal Weather Stations






























Interactive Weather Map
Tropical Storm Tracking
New forecast layout! Learn more

10-Day Weather Forecast

Advertisements
Track Severe Weather on mobile